createdAt,value
2022-12-03T00:01:20.521Z,102264.47
2022-12-03T00:03:48.922Z,102294.28
2022-12-03T00:06:18.869Z,102292.06
2022-12-03T00:08:47.205Z,102293.13
2022-12-03T00:11:15.397Z,102298.97
2022-12-03T00:13:43.667Z,102289.59
2022-12-03T00:16:11.994Z,102270.13
2022-12-03T00:18:40.329Z,102286.22
2022-12-03T00:21:08.585Z,102284.75
2022-12-03T00:23:42.091Z,102294.78
2022-12-03T00:26:10.845Z,102286.56
2022-12-03T00:28:39.156Z,102283.00
2022-12-03T00:31:07.543Z,102278.72
2022-12-03T00:33:35.826Z,102276.19
2022-12-03T00:36:04.100Z,102278.84
2022-12-03T00:38:32.413Z,102277.66
2022-12-03T00:41:02.056Z,102265.59
2022-12-03T00:43:30.634Z,102275.06
2022-12-03T00:45:58.930Z,102276.81
2022-12-03T00:48:27.304Z,102265.50
2022-12-03T00:50:55.536Z,102268.81
2022-12-03T00:53:23.706Z,102270.13
2022-12-03T00:55:51.996Z,102269.47
2022-12-03T00:58:21.577Z,102265.44
2022-12-03T01:00:49.847Z,102259.63
2022-12-03T01:03:18.130Z,102269.28
2022-12-03T01:05:46.370Z,102259.88
2022-12-03T01:08:14.672Z,102263.28
2022-12-03T01:10:42.981Z,102250.47
2022-12-03T01:13:11.373Z,102255.31
2022-12-03T01:15:41.011Z,102256.78
2022-12-03T01:18:09.287Z,102243.72
2022-12-03T01:20:38.588Z,102246.69
2022-12-03T01:23:07.172Z,102245.56
2022-12-03T01:25:35.463Z,102249.00
2022-12-03T01:28:03.721Z,102217.50
2022-12-03T01:30:52.098Z,102242.91
2022-12-03T01:33:20.770Z,102243.97
2022-12-03T01:35:49.002Z,102241.22
2022-12-03T01:38:17.254Z,102243.25
2022-12-03T01:40:46.080Z,102254.50
2022-12-03T01:43:14.342Z,102246.06
2022-12-03T01:45:42.580Z,102249.47
2022-12-03T01:48:13.651Z,102238.53
2022-12-03T01:50:43.967Z,102251.94
2022-12-03T01:53:18.206Z,102237.81
2022-12-03T01:55:48.896Z,102233.00
2022-12-03T01:58:18.299Z,102236.94
2022-12-03T02:00:46.513Z,102234.69
2022-12-03T02:03:22.426Z,102224.25
2022-12-03T02:05:52.134Z,102235.09
2022-12-03T02:08:30.318Z,102236.53
2022-12-03T02:11:00.285Z,102219.72
2022-12-03T02:13:28.586Z,102221.28
2022-12-03T02:15:57.919Z,102233.47
2022-12-03T02:18:26.320Z,102230.25
2022-12-03T02:21:06.546Z,102222.44
2022-12-03T02:23:41.039Z,102229.94
2022-12-03T02:26:10.873Z,102227.97
2022-12-03T02:28:39.332Z,102229.09
2022-12-03T02:31:08.190Z,102233.78
2022-12-03T02:33:36.617Z,102237.41
2022-12-03T02:36:05.974Z,102227.75
2022-12-03T02:38:35.835Z,102233.41
2022-12-03T02:41:09.062Z,102232.53
2022-12-03T02:43:38.198Z,102229.78
2022-12-03T02:46:09.007Z,102227.31
2022-12-03T02:48:39.961Z,102224.00
2022-12-03T02:51:11.732Z,102225.84
2022-12-03T02:53:44.500Z,102226.56
2022-12-03T02:56:16.395Z,102215.34
2022-12-03T02:58:48.537Z,102212.44
2022-12-03T03:01:17.293Z,102222.31
2022-12-03T03:03:47.199Z,102170.66
2022-12-03T03:06:16.804Z,102212.91
2022-12-03T03:08:46.802Z,102210.47
2022-12-03T03:11:15.084Z,102206.41
2022-12-03T03:13:45.148Z,102201.31
2022-12-03T03:16:13.483Z,102211.03
2022-12-03T03:18:41.834Z,102209.03
2022-12-03T03:21:10.381Z,102202.25
2022-12-03T03:23:38.618Z,102207.50
2022-12-03T03:26:09.896Z,102201.81
2022-12-03T03:28:41.069Z,102209.34
2022-12-03T03:31:13.284Z,102204.19
2022-12-03T03:33:43.322Z,102188.72
2022-12-03T03:36:12.161Z,102194.16
2022-12-03T03:38:42.442Z,102198.03
2022-12-03T03:41:14.374Z,102196.41
2022-12-03T03:43:45.142Z,102191.97
2022-12-03T03:46:15.807Z,102191.22
2022-12-03T03:48:44.886Z,102195.75
2022-12-03T03:51:14.312Z,102203.03
2022-12-03T03:53:45.392Z,102194.63
2022-12-03T03:56:14.129Z,102193.72
2022-12-03T03:58:42.353Z,102188.72
2022-12-03T04:01:12.749Z,102193.91
2022-12-03T04:03:42.879Z,102191.09
2022-12-03T04:06:12.064Z,102192.31
2022-12-03T04:08:40.275Z,102184.44
2022-12-03T04:11:25.850Z,102183.53
2022-12-03T04:13:54.098Z,102178.09
2022-12-03T04:16:22.368Z,102176.91
2022-12-03T04:18:52.116Z,102172.59
2022-12-03T04:21:46.125Z,102170.84
2022-12-03T04:24:14.376Z,102174.50
2022-12-03T04:27:05.481Z,102177.84
2022-12-03T04:29:33.790Z,102151.34
2022-12-03T04:32:21.225Z,102172.41
2022-12-03T04:35:08.393Z,102168.31
2022-12-03T04:37:36.737Z,102162.91
2022-12-03T04:40:26.589Z,102152.47
2022-12-03T04:42:54.857Z,102149.75
2022-12-03T04:45:23.077Z,102150.34
2022-12-03T04:47:51.310Z,102129.22
2022-12-03T04:50:20.872Z,102143.00
2022-12-03T04:52:49.155Z,102149.38
2022-12-03T04:55:17.513Z,102144.31
2022-12-03T04:57:45.787Z,102147.56
2022-12-03T05:00:15.961Z,102143.78
2022-12-03T05:02:44.376Z,102138.78
2022-12-03T05:05:12.658Z,102150.47
2022-12-03T05:07:42.703Z,102149.75
2022-12-03T05:10:12.779Z,102141.94
2022-12-03T05:12:41.032Z,102148.31
2022-12-03T05:15:10.125Z,102147.59
2022-12-03T05:17:38.398Z,102150.41
2022-12-03T05:20:26.075Z,102137.41
2022-12-03T05:22:55.677Z,102129.00
2022-12-03T05:25:23.914Z,102140.03
2022-12-03T05:27:52.157Z,102139.88
2022-12-03T05:30:20.504Z,102136.78
2022-12-03T05:32:48.953Z,102133.22
2022-12-03T05:35:17.430Z,102129.41
2022-12-03T05:37:45.682Z,102138.25
2022-12-03T05:40:16.343Z,102096.91
2022-12-03T05:43:01.289Z,102138.66
2022-12-03T05:45:32.118Z,102137.72
2022-12-03T05:48:01.531Z,102145.56
2022-12-03T05:50:33.141Z,102129.44
2022-12-03T05:53:17.320Z,102119.50
2022-12-03T05:55:46.983Z,102109.81
2022-12-03T05:58:15.187Z,102122.47
2022-12-03T06:00:43.417Z,102097.00
2022-12-03T06:03:12.065Z,102110.03
2022-12-03T06:05:40.413Z,102093.53
2022-12-03T06:08:08.666Z,102102.88
2022-12-03T06:10:37.529Z,102105.09
2022-12-03T06:13:07.159Z,102095.44
2022-12-03T06:15:38.915Z,102105.94
2022-12-03T06:18:11.663Z,102121.25
2022-12-03T06:20:40.029Z,102102.91
2022-12-03T06:23:08.264Z,102101.91
2022-12-03T06:25:36.517Z,102098.63
2022-12-03T06:28:07.330Z,102095.19
2022-12-03T06:30:35.929Z,102107.09
2022-12-03T06:33:04.210Z,102094.50
2022-12-03T06:35:33.053Z,102085.97
2022-12-03T06:38:01.261Z,102098.38
2022-12-03T06:40:29.620Z,102097.94
2022-12-03T06:42:57.837Z,102088.81
2022-12-03T06:45:27.408Z,102086.16
2022-12-03T06:47:55.609Z,102085.66
2022-12-03T06:50:23.836Z,102088.28
2022-12-03T06:52:52.081Z,102087.16
2022-12-03T06:55:20.253Z,102081.50
2022-12-03T06:57:48.478Z,102093.25
2022-12-03T07:00:17.404Z,102076.16
2022-12-03T07:02:47.090Z,102098.16
2022-12-03T07:05:15.471Z,102089.13
2022-12-03T07:07:43.689Z,102092.56
2022-12-03T07:10:14.802Z,102111.81
2022-12-03T07:12:43.135Z,102103.06
2022-12-03T07:15:12.060Z,102105.28
2022-12-03T07:17:40.438Z,102098.34
2022-12-03T07:20:11.613Z,102100.44
2022-12-03T07:22:40.177Z,102104.44
2022-12-03T07:25:09.631Z,102107.34
2022-12-03T07:27:37.863Z,102104.28
2022-12-03T07:30:08.097Z,102108.69
2022-12-03T07:32:36.394Z,102100.94
2022-12-03T07:35:07.317Z,102100.19
2022-12-03T07:37:37.012Z,102100.53
2022-12-03T07:40:07.012Z,102096.38
2022-12-03T07:42:35.283Z,102097.34
2022-12-03T07:45:03.667Z,102090.97
2022-12-03T07:47:32.032Z,102097.41
2022-12-03T07:50:00.241Z,102092.75
2022-12-03T07:52:28.554Z,102116.81
2022-12-03T07:54:58.125Z,102097.13
2022-12-03T07:57:26.374Z,102104.66
2022-12-03T07:59:54.569Z,102104.72
2022-12-03T08:02:22.869Z,102105.06
2022-12-03T08:04:51.347Z,102099.75
2022-12-03T08:07:19.721Z,102097.28
2022-12-03T08:09:47.962Z,102106.50
2022-12-03T08:12:39.946Z,102100.09
2022-12-03T08:15:14.919Z,102097.22
2022-12-03T08:17:44.361Z,102088.47
2022-12-03T08:20:16.845Z,102089.72
2022-12-03T08:22:47.499Z,102104.47
2022-12-03T08:25:22.531Z,102085.63
2022-12-03T08:27:56.021Z,102087.25
2022-12-03T08:30:24.931Z,102076.97
2022-12-03T08:32:53.497Z,102088.19
2022-12-03T08:35:26.184Z,102095.19
2022-12-03T08:38:03.053Z,102082.56
2022-12-03T08:40:37.609Z,102082.16
2022-12-03T08:43:16.084Z,102077.50
2022-12-03T08:45:44.377Z,102090.31
2022-12-03T08:48:34.457Z,102090.22
2022-12-03T08:51:10.516Z,102073.03
2022-12-03T08:53:45.895Z,102102.88
2022-12-03T08:56:24.045Z,102078.59
2022-12-03T08:58:57.222Z,102070.63
2022-12-03T09:01:40.434Z,102068.88
2022-12-03T09:04:28.914Z,102065.84
2022-12-03T09:06:58.439Z,102071.59
2022-12-03T09:09:27.423Z,102079.00
2022-12-03T09:11:56.384Z,102074.81
2022-12-03T09:14:26.133Z,102070.69
2022-12-03T09:16:55.846Z,102070.13
2022-12-03T09:19:25.348Z,102084.28
2022-12-03T09:21:53.920Z,102062.19
2022-12-03T09:24:22.804Z,102072.69
2022-12-03T09:26:51.422Z,102049.59
2022-12-03T09:29:19.703Z,102075.31
2022-12-03T09:31:49.315Z,102071.00
2022-12-03T09:34:17.738Z,102079.22
2022-12-03T09:36:46.007Z,102074.91
2022-12-03T09:39:14.317Z,102080.13
2022-12-03T09:41:44.144Z,102087.72
2022-12-03T09:44:17.552Z,102081.25
2022-12-03T09:46:49.371Z,102076.44
2022-12-03T09:49:19.768Z,102078.56
2022-12-03T09:51:48.398Z,102072.06
2022-12-03T09:54:24.936Z,102068.91
2022-12-03T09:56:54.854Z,102075.09
2022-12-03T09:59:24.770Z,102073.28
2022-12-03T10:01:55.494Z,102050.06
2022-12-03T10:04:23.975Z,102066.28
2022-12-03T10:06:52.963Z,102068.00
2022-12-03T10:09:30.300Z,102067.03
2022-12-03T10:12:00.305Z,102038.16
2022-12-03T10:14:29.314Z,102068.19
2022-12-03T10:16:59.908Z,102072.69
2022-12-03T10:19:32.598Z,102070.78
2022-12-03T10:22:01.107Z,102070.44
2022-12-03T10:24:31.548Z,102069.38
2022-12-03T10:27:01.655Z,102064.94
2022-12-03T10:29:34.394Z,102038.97
2022-12-03T10:32:07.177Z,102058.91
2022-12-03T10:34:38.120Z,102060.59
2022-12-03T10:37:16.325Z,102051.63
2022-12-03T10:39:59.994Z,102035.19
2022-12-03T10:42:30.519Z,102015.28
2022-12-03T10:45:10.362Z,102053.78
2022-12-03T10:47:40.164Z,102042.97
2022-12-03T10:50:18.535Z,102033.00
2022-12-03T10:52:47.935Z,102000.72
2022-12-03T10:55:17.349Z,102022.72
2022-12-03T10:57:47.055Z,102025.91
2022-12-03T11:00:19.513Z,102003.72
2022-12-03T11:02:54.828Z,102014.91
2022-12-03T11:05:28.060Z,101997.00
2022-12-03T11:07:57.458Z,102006.28
2022-12-03T11:10:26.285Z,102016.56
2022-12-03T11:13:46.455Z,102010.88
2022-12-03T11:16:16.076Z,102006.75
2022-12-03T11:19:03.530Z,102006.13
2022-12-03T11:21:32.325Z,102007.88
2022-12-03T11:24:20.547Z,101994.75
2022-12-03T11:27:20.629Z,101894.19
2022-12-03T11:29:56.067Z,101998.28
2022-12-03T11:33:21.158Z,101995.84
2022-12-03T11:36:15.463Z,101989.75
2022-12-03T11:38:56.394Z,101954.19
2022-12-03T11:41:31.911Z,101981.53
2022-12-03T11:44:33.690Z,101971.97
2022-12-03T11:47:15.729Z,101969.28
2022-12-03T11:49:49.137Z,101976.56
2022-12-03T11:52:27.658Z,101971.97
2022-12-03T11:55:02.253Z,101968.94
2022-12-03T11:57:37.830Z,101972.78
2022-12-03T12:00:22.973Z,101961.38
2022-12-03T12:02:52.952Z,101961.53
2022-12-03T12:05:26.476Z,101955.22
2022-12-03T12:07:57.031Z,101955.38
2022-12-03T12:10:45.131Z,101959.47
2022-12-03T12:13:49.942Z,101957.53
2022-12-03T12:16:45.977Z,101957.38
2022-12-03T12:19:39.958Z,101945.03
2022-12-03T12:22:36.696Z,101941.88
2022-12-03T12:25:36.080Z,101942.63
2022-12-03T12:28:04.469Z,101930.28
2022-12-03T12:30:32.632Z,101924.41
2022-12-03T12:33:13.012Z,101922.34
2022-12-03T12:35:42.875Z,101920.50
2022-12-03T12:38:21.937Z,101925.59
2022-12-03T12:40:52.182Z,101925.19
2022-12-03T12:43:25.006Z,101937.16
2022-12-03T12:45:55.570Z,101931.09
2022-12-03T12:48:27.424Z,101927.47
2022-12-03T12:51:02.186Z,101926.28
2022-12-03T12:53:33.822Z,101936.75
2022-12-03T12:56:14.440Z,101931.63
2022-12-03T12:58:42.831Z,101935.38
2022-12-03T13:01:21.560Z,101929.22
2022-12-03T13:03:53.233Z,101928.91
2022-12-03T13:06:27.585Z,101928.75
2022-12-03T13:08:56.173Z,101928.22
2022-12-03T13:11:39.511Z,101914.00
2022-12-03T13:14:17.185Z,101911.19
2022-12-03T13:16:46.210Z,101910.41
2022-12-03T13:19:26.493Z,101917.56
2022-12-03T13:21:56.234Z,101913.31
2022-12-03T13:24:33.240Z,101912.84
2022-12-03T13:27:22.947Z,101911.41
2022-12-03T13:29:56.697Z,101887.69
2022-12-03T13:32:30.943Z,101910.09
2022-12-03T13:35:05.557Z,101909.09
2022-12-03T13:37:34.039Z,101903.66
2022-12-03T13:40:21.202Z,101893.47
2022-12-03T13:42:52.525Z,101890.13
2022-12-03T13:45:42.015Z,101755.88
2022-12-03T13:48:21.058Z,101895.72
2022-12-03T13:50:49.600Z,101884.94
2022-12-03T13:53:23.441Z,101880.56
2022-12-03T13:55:55.277Z,101876.78
2022-12-03T13:58:24.847Z,101884.13
2022-12-03T14:00:53.207Z,101872.56
2022-12-03T14:03:23.376Z,101886.34
2022-12-03T14:05:51.653Z,101880.34
2022-12-03T14:08:20.187Z,101871.72
2022-12-03T14:10:48.563Z,101871.75
2022-12-03T14:13:16.799Z,101872.03
2022-12-03T14:15:46.392Z,101874.88
2022-12-03T14:18:14.670Z,101846.72
2022-12-03T14:20:42.897Z,101858.31
2022-12-03T14:23:11.233Z,101867.91
2022-12-03T14:25:39.483Z,101849.25
2022-12-03T14:28:09.518Z,101856.16
2022-12-03T14:30:37.837Z,101856.56
2022-12-03T14:33:07.453Z,101865.69
2022-12-03T14:35:37.158Z,101856.78
2022-12-03T14:38:05.416Z,101853.06
2022-12-03T14:40:33.695Z,101855.22
2022-12-03T14:43:01.917Z,101866.22
2022-12-03T14:45:30.593Z,101874.91
2022-12-03T14:47:58.906Z,101861.34
2022-12-03T14:50:28.517Z,101861.66
2022-12-03T14:52:56.836Z,101865.97
2022-12-03T14:55:25.184Z,101848.47
2022-12-03T14:57:53.402Z,101861.69
2022-12-03T15:00:23.777Z,101864.47
2022-12-03T15:02:52.209Z,101860.69
2022-12-03T15:05:28.034Z,101853.16
2022-12-03T15:07:58.330Z,101861.41
2022-12-03T15:10:26.543Z,101864.16
2022-12-03T15:12:54.739Z,101861.41
2022-12-03T15:15:22.987Z,101847.66
2022-12-03T15:17:51.169Z,101855.63
2022-12-03T15:20:19.939Z,101847.25
2022-12-03T15:22:48.215Z,101868.66
2022-12-03T15:25:24.225Z,101855.97
2022-12-03T15:27:52.548Z,101857.88
2022-12-03T15:30:21.357Z,101871.94
2022-12-03T15:32:49.614Z,101849.81
2022-12-03T15:35:18.619Z,101860.25
2022-12-03T15:37:47.090Z,101854.66
2022-12-03T15:40:17.173Z,101858.25
2022-12-03T15:42:45.456Z,101851.84
2022-12-03T15:45:15.446Z,101857.06
2022-12-03T15:47:44.010Z,101851.78
2022-12-03T15:50:13.469Z,101856.22
2022-12-03T15:52:41.931Z,101850.84
2022-12-03T15:55:11.165Z,101863.13
2022-12-03T15:57:40.816Z,101849.94
2022-12-03T16:00:12.573Z,101831.28
2022-12-03T16:02:40.939Z,101849.31
2022-12-03T16:05:12.928Z,101858.03
2022-12-03T16:07:41.412Z,101860.69
2022-12-03T16:10:12.217Z,101851.59
2022-12-03T16:12:41.842Z,101859.94
2022-12-03T16:15:10.915Z,101863.06
2022-12-03T16:17:39.157Z,101856.38
2022-12-03T16:20:09.294Z,101851.00
2022-12-03T16:22:37.496Z,101843.00
2022-12-03T16:25:07.168Z,101844.09
2022-12-03T16:27:37.036Z,101852.66
2022-12-03T16:30:09.402Z,101844.47
2022-12-03T16:32:37.699Z,101843.00
2022-12-03T16:35:06.806Z,101833.81
2022-12-03T16:37:35.093Z,101837.91
2022-12-03T16:40:03.410Z,101844.75
2022-12-03T16:42:31.693Z,101837.63
2022-12-03T16:45:22.861Z,101834.34
2022-12-03T16:47:52.461Z,101843.13
2022-12-03T16:50:27.587Z,101832.63
2022-12-03T16:52:57.965Z,101853.47
2022-12-03T16:55:26.456Z,101851.22
2022-12-03T16:57:54.755Z,101852.19
2022-12-03T17:00:23.229Z,101847.66
2022-12-03T17:02:52.953Z,101858.50
2022-12-03T17:05:21.422Z,101855.28
2022-12-03T17:07:49.749Z,101851.91
2022-12-03T17:10:18.275Z,101851.22
2022-12-03T17:13:10.063Z,101845.34
2022-12-03T17:15:35.046Z,101846.84
2022-12-03T17:18:05.251Z,101849.50
2022-12-03T17:20:34.549Z,101857.53
2022-12-03T17:23:03.434Z,101832.16
2022-12-03T17:25:32.067Z,101846.09
2022-12-03T17:28:00.352Z,101849.69
2022-12-03T17:30:28.653Z,101851.72
2022-12-03T17:32:57.817Z,101837.41
2022-12-03T17:35:28.518Z,101847.25
2022-12-03T17:37:56.935Z,101847.13
2022-12-03T17:40:25.163Z,101842.13
2022-12-03T17:42:53.441Z,101842.19
2022-12-03T17:45:21.657Z,101851.09
2022-12-03T17:47:49.884Z,101839.59
2022-12-03T17:50:18.181Z,101839.81
2022-12-03T17:52:47.762Z,101837.31
2022-12-03T17:55:26.123Z,101836.97
2022-12-03T17:57:56.278Z,101836.81
2022-12-03T18:00:24.782Z,101831.44
2022-12-03T18:02:53.055Z,101836.19
2022-12-03T18:05:22.974Z,101826.38
2022-12-03T18:07:53.070Z,101830.19
2022-12-03T18:10:21.355Z,101821.38
2022-12-03T18:12:49.787Z,101790.63
2022-12-03T18:15:18.630Z,101814.25
2022-12-03T18:17:49.829Z,101812.84
2022-12-03T18:20:18.475Z,101813.19
2022-12-03T18:22:46.739Z,101820.16
2022-12-03T18:25:18.006Z,101805.22
2022-12-03T18:27:47.600Z,101816.41
2022-12-03T18:30:16.320Z,101817.50
2022-12-03T18:32:44.613Z,101816.25
2022-12-03T18:35:13.041Z,101819.56
2022-12-03T18:37:41.472Z,101820.78
2022-12-03T18:40:20.096Z,101819.31
2022-12-03T18:42:48.653Z,101797.75
2022-12-03T18:45:17.352Z,101815.75
2022-12-03T18:47:46.410Z,101819.38
2022-12-03T18:50:14.883Z,101806.41
2022-12-03T18:52:43.241Z,101808.56
2022-12-03T18:55:19.661Z,101808.50
2022-12-03T18:57:47.923Z,101816.41
2022-12-03T19:00:17.514Z,101823.69
2022-12-03T19:05:35.737Z,101806.53
2022-12-03T19:08:12.484Z,101830.66
2022-12-03T19:10:43.470Z,101824.19
2022-12-03T19:13:12.079Z,101804.75
2022-12-03T19:15:41.098Z,101818.19
2022-12-03T19:18:09.487Z,101816.25
2022-12-03T19:20:41.830Z,101819.00
2022-12-03T19:23:10.823Z,101768.72
2022-12-03T19:25:39.095Z,101814.44
2022-12-03T19:28:09.334Z,101802.28
2022-12-03T19:30:37.608Z,101801.84
2022-12-03T19:33:05.889Z,101800.88
2022-12-03T19:35:40.128Z,101795.28
2022-12-03T19:38:08.457Z,101809.03
2022-12-03T19:40:36.782Z,101816.25
2022-12-03T19:43:05.102Z,101793.03
2022-12-03T19:45:41.592Z,101691.63
2022-12-03T19:48:09.913Z,101789.41
2022-12-03T19:50:38.163Z,101798.47
2022-12-03T19:53:06.475Z,101799.91
2022-12-03T19:55:36.725Z,101785.16
2022-12-03T19:58:04.999Z,101800.81
2022-12-03T20:00:35.648Z,101797.78
2022-12-03T20:03:04.393Z,101800.53
2022-12-03T20:05:37.965Z,101789.69
2022-12-03T20:08:08.977Z,101784.88
2022-12-03T20:10:37.644Z,101784.59
2022-12-03T20:13:06.260Z,101771.34
2022-12-03T20:15:37.829Z,101796.59
2022-12-03T20:18:06.371Z,101801.31
2022-12-03T20:20:34.623Z,101793.78
2022-12-03T20:23:04.351Z,101786.28
2022-12-03T20:25:32.684Z,101786.47
2022-12-03T20:28:00.898Z,101794.56
2022-12-03T20:30:29.243Z,101797.41
2022-12-03T20:32:58.811Z,101791.47
2022-12-03T20:35:27.140Z,101771.94
2022-12-03T20:37:55.364Z,101771.59
2022-12-03T20:40:23.625Z,101768.88
2022-12-03T20:42:52.606Z,101764.28
2022-12-03T20:45:20.961Z,101767.09
2022-12-03T20:47:49.895Z,101766.81
2022-12-03T20:50:19.727Z,101767.97
2022-12-03T20:53:09.336Z,101757.16
2022-12-03T20:55:36.235Z,101760.75
2022-12-03T20:58:04.923Z,101762.97
2022-12-03T21:00:33.305Z,101766.91
2022-12-03T21:03:01.566Z,101756.75
2022-12-03T21:05:31.294Z,101771.13
2022-12-03T21:07:59.567Z,101767.50
2022-12-03T21:10:36.957Z,101766.59
2022-12-03T21:13:05.229Z,101756.38
2022-12-03T21:15:33.432Z,101755.78
2022-12-03T21:18:01.788Z,101744.59
2022-12-03T21:20:31.418Z,101746.03
2022-12-03T21:22:59.689Z,101756.38
2022-12-03T21:25:28.040Z,101768.78
2022-12-03T21:27:56.365Z,101769.94
2022-12-03T21:30:24.648Z,101760.81
2022-12-03T21:32:52.984Z,101763.63
2022-12-03T21:35:21.165Z,101770.16
2022-12-03T21:37:51.637Z,101773.69
2022-12-03T21:40:19.971Z,101766.59
2022-12-03T21:42:48.545Z,101769.81
2022-12-03T21:45:17.311Z,101779.78
2022-12-03T21:47:49.291Z,101728.56
2022-12-03T21:50:17.946Z,101776.44
2022-12-03T21:52:46.153Z,101767.91
2022-12-03T21:55:15.920Z,101762.38
2022-12-03T21:57:44.339Z,101764.28
2022-12-03T22:00:14.483Z,101768.59
2022-12-03T22:02:42.781Z,101769.75
2022-12-03T22:05:12.746Z,101766.94
2022-12-03T22:07:41.635Z,101769.28
2022-12-03T22:10:12.594Z,101755.06
2022-12-03T22:12:42.288Z,101756.38
2022-12-03T22:15:18.189Z,101753.34
2022-12-03T22:17:47.442Z,101751.34
2022-12-03T22:20:16.266Z,101748.16
2022-12-03T22:22:44.536Z,101746.06
2022-12-03T22:25:12.824Z,101754.19
2022-12-03T22:27:42.496Z,101746.72
2022-12-03T22:30:11.477Z,101750.06
2022-12-03T22:32:39.776Z,101752.63
2022-12-03T22:35:09.166Z,101740.22
2022-12-03T22:37:37.387Z,101751.97
2022-12-03T22:40:07.087Z,101735.31
2022-12-03T22:42:35.345Z,101741.16
2022-12-03T22:45:06.020Z,101738.88
2022-12-03T22:47:34.272Z,101737.75
2022-12-03T22:50:02.534Z,101742.06
2022-12-03T22:52:31.671Z,101744.38
2022-12-03T22:54:59.892Z,101741.19
2022-12-03T22:57:28.193Z,101746.03
2022-12-03T22:59:56.729Z,101739.16
2022-12-03T23:02:26.621Z,101738.44
2022-12-03T23:04:56.721Z,101661.56
2022-12-03T23:07:24.991Z,101739.63
2022-12-03T23:09:53.580Z,101738.59
2022-12-03T23:12:22.317Z,101729.38
2022-12-03T23:14:55.140Z,101734.09
2022-12-03T23:17:23.439Z,101726.19
2022-12-03T23:19:53.511Z,101722.06
2022-12-03T23:22:22.003Z,101722.97
2022-12-03T23:24:50.232Z,101710.28
2022-12-03T23:27:18.453Z,101716.41
2022-12-03T23:29:46.663Z,101711.47
2022-12-03T23:32:14.932Z,101712.22
2022-12-03T23:34:43.211Z,101715.06
2022-12-03T23:37:12.958Z,101710.88
2022-12-03T23:39:41.488Z,101720.13
2022-12-03T23:42:09.738Z,101724.25
2022-12-03T23:44:37.993Z,101723.81
2022-12-03T23:47:06.392Z,101723.28
2022-12-03T23:49:34.775Z,101724.47
2022-12-03T23:52:03.061Z,101724.41
2022-12-03T23:54:32.716Z,101727.09
2022-12-03T23:57:00.958Z,101718.13
2022-12-03T23:59:29.264Z,101721.13
